sensor_id;sensor_type;location;lat;lon;timestamp;pressure;altitude;pressure_sealevel;temperature;humidity
44131;BME280;29792;48.726;9.248;2022-07-25T00:02:14;96757.84;;;24.01;61.26
44131;BME280;29792;48.726;9.248;2022-07-25T00:04:40;96761.13;;;23.96;61.31
44131;BME280;29792;48.726;9.248;2022-07-25T00:07:05;96752.31;;;23.91;61.25
44131;BME280;29792;48.726;9.248;2022-07-25T00:09:30;96755.34;;;23.88;61.59
44131;BME280;29792;48.726;9.248;2022-07-25T00:11:56;96745.28;;;23.85;61.94
44131;BME280;29792;48.726;9.248;2022-07-25T00:14:21;96745.13;;;23.80;62.05
44131;BME280;29792;48.726;9.248;2022-07-25T00:16:46;96736.91;;;23.76;62.00
44131;BME280;29792;48.726;9.248;2022-07-25T00:19:12;96739.94;;;23.73;62.48
44131;BME280;29792;48.726;9.248;2022-07-25T00:21:37;96739.16;;;23.73;62.32
44131;BME280;29792;48.726;9.248;2022-07-25T00:24:02;96735.94;;;23.71;62.58
44131;BME280;29792;48.726;9.248;2022-07-25T00:26:28;96738.97;;;23.68;63.08
44131;BME280;29792;48.726;9.248;2022-07-25T00:28:53;96727.94;;;23.66;62.69
44131;BME280;29792;48.726;9.248;2022-07-25T00:31:18;96724.94;;;23.62;63.02
44131;BME280;29792;48.726;9.248;2022-07-25T00:33:44;96741.84;;;23.59;63.32
44131;BME280;29792;48.726;9.248;2022-07-25T00:36:09;96740.66;;;23.55;63.31
44131;BME280;29792;48.726;9.248;2022-07-25T00:38:34;96740.28;;;23.52;63.32
44131;BME280;29792;48.726;9.248;2022-07-25T00:41:01;96743.34;;;23.49;63.82
44131;BME280;29792;48.726;9.248;2022-07-25T00:43:27;96742.09;;;23.45;63.45
44131;BME280;29792;48.726;9.248;2022-07-25T00:45:52;96750.59;;;23.40;63.50
44131;BME280;29792;48.726;9.248;2022-07-25T00:48:17;96749.38;;;23.36;63.87
44131;BME280;29792;48.726;9.248;2022-07-25T00:50:43;96750.03;;;23.32;63.99
44131;BME280;29792;48.726;9.248;2022-07-25T00:53:08;96750.63;;;23.27;64.36
44131;BME280;29792;48.726;9.248;2022-07-25T00:55:34;96747.06;;;23.21;64.26
44131;BME280;29792;48.726;9.248;2022-07-25T00:57:59;96740.88;;;23.16;64.65
44131;BME280;29792;48.726;9.248;2022-07-25T01:00:24;96742.28;;;23.12;64.72
44131;BME280;29792;48.726;9.248;2022-07-25T01:02:50;96741.09;;;23.08;64.96
44131;BME280;29792;48.726;9.248;2022-07-25T01:05:15;96735.47;;;23.04;65.11
44131;BME280;29792;48.726;9.248;2022-07-25T01:07:40;96740.13;;;23.02;65.06
44131;BME280;29792;48.726;9.248;2022-07-25T01:10:07;96736.31;;;22.98;65.41
44131;BME280;29792;48.726;9.248;2022-07-25T01:12:50;96735.72;;;22.96;65.56
44131;BME280;29792;48.726;9.248;2022-07-25T01:15:20;96734.09;;;22.95;66.44
44131;BME280;29792;48.726;9.248;2022-07-25T01:17:45;96730.13;;;22.93;66.01
44131;BME280;29792;48.726;9.248;2022-07-25T01:20:16;96732.31;;;22.89;66.27
44131;BME280;29792;48.726;9.248;2022-07-25T01:22:42;96730.91;;;22.87;66.26
44131;BME280;29792;48.726;9.248;2022-07-25T01:25:08;96726.31;;;22.82;66.44
44131;BME280;29792;48.726;9.248;2022-07-25T01:27:33;96722.31;;;22.79;66.96
44131;BME280;29792;48.726;9.248;2022-07-25T01:29:59;96721.94;;;22.76;67.11
44131;BME280;29792;48.726;9.248;2022-07-25T01:32:24;96712.66;;;22.73;67.10
44131;BME280;29792;48.726;9.248;2022-07-25T01:34:49;96715.28;;;22.73;67.65
44131;BME280;29792;48.726;9.248;2022-07-25T01:37:14;96711.06;;;22.72;67.87
44131;BME280;29792;48.726;9.248;2022-07-25T01:39:40;96714.47;;;22.73;67.65
44131;BME280;29792;48.726;9.248;2022-07-25T01:42:05;96712.84;;;22.72;67.54
44131;BME280;29792;48.726;9.248;2022-07-25T01:44:30;96705.81;;;22.72;67.75
44131;BME280;29792;48.726;9.248;2022-07-25T01:46:56;96704.22;;;22.71;67.96
44131;BME280;29792;48.726;9.248;2022-07-25T01:49:21;96702.41;;;22.72;68.15
44131;BME280;29792;48.726;9.248;2022-07-25T01:51:46;96708.63;;;22.71;68.19
44131;BME280;29792;48.726;9.248;2022-07-25T01:54:11;96705.47;;;22.69;68.50
44131;BME280;29792;48.726;9.248;2022-07-25T01:56:42;96702.25;;;22.67;68.31
44131;BME280;29792;48.726;9.248;2022-07-25T01:59:07;96699.81;;;22.65;69.04
44131;BME280;29792;48.726;9.248;2022-07-25T02:01:33;96702.63;;;22.64;69.45
44131;BME280;29792;48.726;9.248;2022-07-25T02:03:58;96702.06;;;22.62;69.48
44131;BME280;29792;48.726;9.248;2022-07-25T02:06:23;96700.66;;;22.59;69.68
44131;BME280;29792;48.726;9.248;2022-07-25T02:08:48;96697.06;;;22.54;69.51
44131;BME280;29792;48.726;9.248;2022-07-25T02:11:14;96693.25;;;22.50;69.95
44131;BME280;29792;48.726;9.248;2022-07-25T02:13:39;96691.84;;;22.47;70.12
44131;BME280;29792;48.726;9.248;2022-07-25T02:16:04;96687.06;;;22.44;70.98
44131;BME280;29792;48.726;9.248;2022-07-25T02:18:30;96687.44;;;22.41;70.45
44131;BME280;29792;48.726;9.248;2022-07-25T02:20:55;96689.44;;;22.39;70.49
44131;BME280;29792;48.726;9.248;2022-07-25T02:23:20;96688.06;;;22.36;70.97
44131;BME280;29792;48.726;9.248;2022-07-25T02:25:46;96692.69;;;22.34;71.16
44131;BME280;29792;48.726;9.248;2022-07-25T02:28:12;96682.66;;;22.31;70.89
44131;BME280;29792;48.726;9.248;2022-07-25T02:30:37;96679.47;;;22.29;71.08
44131;BME280;29792;48.726;9.248;2022-07-25T02:33:03;96680.66;;;22.27;71.28
44131;BME280;29792;48.726;9.248;2022-07-25T02:35:28;96687.88;;;22.25;71.45
44131;BME280;29792;48.726;9.248;2022-07-25T02:37:53;96680.25;;;22.23;71.53
44131;BME280;29792;48.726;9.248;2022-07-25T02:40:19;96671.84;;;22.21;71.07
44131;BME280;29792;48.726;9.248;2022-07-25T02:42:44;96668.84;;;22.18;70.81
44131;BME280;29792;48.726;9.248;2022-07-25T02:45:09;96670.84;;;22.16;70.90
44131;BME280;29792;48.726;9.248;2022-07-25T02:47:35;96671.84;;;22.15;70.88
44131;BME280;29792;48.726;9.248;2022-07-25T02:50:00;96666.63;;;22.15;70.99
44131;BME280;29792;48.726;9.248;2022-07-25T02:52:25;96664.25;;;22.13;71.32
44131;BME280;29792;48.726;9.248;2022-07-25T02:54:50;96657.19;;;22.14;70.58
44131;BME280;29792;48.726;9.248;2022-07-25T02:57:16;96661.03;;;22.11;71.02
44131;BME280;29792;48.726;9.248;2022-07-25T02:59:41;96661.22;;;22.10;71.30
44131;BME280;29792;48.726;9.248;2022-07-25T03:02:06;96655.41;;;22.07;71.27
44131;BME280;29792;48.726;9.248;2022-07-25T03:04:32;96665.03;;;22.07;71.55
44131;BME280;29792;48.726;9.248;2022-07-25T03:06:57;96667.84;;;22.05;71.81
44131;BME280;29792;48.726;9.248;2022-07-25T03:09:22;96664.66;;;22.03;71.79
44131;BME280;29792;48.726;9.248;2022-07-25T03:11:48;96665.03;;;22.00;71.88
44131;BME280;29792;48.726;9.248;2022-07-25T03:14:14;96650.59;;;21.98;71.21
44131;BME280;29792;48.726;9.248;2022-07-25T03:16:40;96657.63;;;21.97;71.81
44131;BME280;29792;48.726;9.248;2022-07-25T03:19:05;96657.81;;;21.96;71.87
44131;BME280;29792;48.726;9.248;2022-07-25T03:21:34;96665.84;;;21.94;71.98
44131;BME280;29792;48.726;9.248;2022-07-25T03:23:59;96663.41;;;21.93;72.20
44131;BME280;29792;48.726;9.248;2022-07-25T03:26:25;96663.81;;;21.90;72.29
44131;BME280;29792;48.726;9.248;2022-07-25T03:28:50;96656.22;;;21.88;72.30
44131;BME280;29792;48.726;9.248;2022-07-25T03:31:15;96650.38;;;21.86;72.15
44131;BME280;29792;48.726;9.248;2022-07-25T03:33:40;96643.75;;;21.84;72.35
44131;BME280;29792;48.726;9.248;2022-07-25T03:36:06;96635.94;;;21.84;72.03
44131;BME280;29792;48.726;9.248;2022-07-25T03:38:31;96636.13;;;21.82;72.05
44131;BME280;29792;48.726;9.248;2022-07-25T03:40:57;96635.31;;;21.82;72.33
44131;BME280;29792;48.726;9.248;2022-07-25T03:43:22;96634.75;;;21.80;72.01
44131;BME280;29792;48.726;9.248;2022-07-25T03:45:47;96629.72;;;21.78;71.82
44131;BME280;29792;48.726;9.248;2022-07-25T03:48:12;96636.16;;;21.76;72.16
44131;BME280;29792;48.726;9.248;2022-07-25T03:50:38;96626.91;;;21.73;72.21
44131;BME280;29792;48.726;9.248;2022-07-25T03:53:03;96627.94;;;21.72;71.91
44131;BME280;29792;48.726;9.248;2022-07-25T03:55:28;96614.28;;;21.70;72.28
44131;BME280;29792;48.726;9.248;2022-07-25T03:57:53;96623.13;;;21.69;72.42
44131;BME280;29792;48.726;9.248;2022-07-25T04:00:19;96620.91;;;21.66;72.26
44131;BME280;29792;48.726;9.248;2022-07-25T04:02:44;96622.94;;;21.64;72.64
44131;BME280;29792;48.726;9.248;2022-07-25T04:05:09;96614.50;;;21.62;72.25
44131;BME280;29792;48.726;9.248;2022-07-25T04:07:35;96616.50;;;21.60;72.46
44131;BME280;29792;48.726;9.248;2022-07-25T04:10:01;96619.09;;;21.60;72.73
44131;BME280;29792;48.726;9.248;2022-07-25T04:12:26;96610.47;;;21.59;72.57
44131;BME280;29792;48.726;9.248;2022-07-25T04:14:52;96614.28;;;21.57;72.61
44131;BME280;29792;48.726;9.248;2022-07-25T04:17:17;96613.28;;;21.58;72.80
44131;BME280;29792;48.726;9.248;2022-07-25T04:19:42;96610.09;;;21.56;72.96
44131;BME280;29792;48.726;9.248;2022-07-25T04:22:07;96602.47;;;21.54;72.99
44131;BME280;29792;48.726;9.248;2022-07-25T04:24:33;96608.69;;;21.53;73.18
44131;BME280;29792;48.726;9.248;2022-07-25T04:26:58;96604.47;;;21.52;73.15
44131;BME280;29792;48.726;9.248;2022-07-25T04:29:23;96603.66;;;21.52;73.07
44131;BME280;29792;48.726;9.248;2022-07-25T04:31:49;96612.09;;;21.54;73.01
44131;BME280;29792;48.726;9.248;2022-07-25T04:34:14;96598.47;;;21.52;72.97
44131;BME280;29792;48.726;9.248;2022-07-25T04:36:39;96600.25;;;21.51;73.19
44131;BME280;29792;48.726;9.248;2022-07-25T04:39:04;96605.66;;;21.50;73.08
44131;BME280;29792;48.726;9.248;2022-07-25T04:41:30;96602.50;;;21.48;72.98
44131;BME280;29792;48.726;9.248;2022-07-25T04:43:55;96600.69;;;21.48;73.20
44131;BME280;29792;48.726;9.248;2022-07-25T04:46:21;96607.69;;;21.48;72.84
44131;BME280;29792;48.726;9.248;2022-07-25T04:48:47;96595.66;;;21.47;72.90
44131;BME280;29792;48.726;9.248;2022-07-25T04:51:13;96599.47;;;21.44;72.72
44131;BME280;29792;48.726;9.248;2022-07-25T04:53:38;96611.69;;;21.44;73.56
44131;BME280;29792;48.726;9.248;2022-07-25T04:56:04;96611.50;;;21.45;73.39
44131;BME280;29792;48.726;9.248;2022-07-25T04:58:30;96603.69;;;21.45;73.18
44131;BME280;29792;48.726;9.248;2022-07-25T05:00:55;96619.13;;;21.47;73.26
44131;BME280;29792;48.726;9.248;2022-07-25T05:03:20;96610.50;;;21.46;73.58
44131;BME280;29792;48.726;9.248;2022-07-25T05:05:46;96607.47;;;21.43;73.83
44131;BME280;29792;48.726;9.248;2022-07-25T05:08:11;96606.69;;;21.42;74.35
44131;BME280;29792;48.726;9.248;2022-07-25T05:10:36;96606.47;;;21.44;74.88
44131;BME280;29792;48.726;9.248;2022-07-25T05:13:01;96606.28;;;21.45;74.54
44131;BME280;29792;48.726;9.248;2022-07-25T05:15:27;96603.47;;;21.47;75.01
44131;BME280;29792;48.726;9.248;2022-07-25T05:17:52;96606.09;;;21.47;75.64
44131;BME280;29792;48.726;9.248;2022-07-25T05:20:17;96599.47;;;21.44;75.50
44131;BME280;29792;48.726;9.248;2022-07-25T05:22:43;96602.47;;;21.41;75.73
44131;BME280;29792;48.726;9.248;2022-07-25T05:25:09;96600.88;;;21.40;75.93
44131;BME280;29792;48.726;9.248;2022-07-25T05:27:35;96605.28;;;21.40;76.46
44131;BME280;29792;48.726;9.248;2022-07-25T05:30:02;96601.66;;;21.41;76.92
44131;BME280;29792;48.726;9.248;2022-07-25T05:32:27;96599.84;;;21.41;76.85
44131;BME280;29792;48.726;9.248;2022-07-25T05:34:52;96597.06;;;21.43;77.46
44131;BME280;29792;48.726;9.248;2022-07-25T05:37:18;96597.66;;;21.45;77.80
44131;BME280;29792;48.726;9.248;2022-07-25T05:39:43;96596.84;;;21.51;77.52
44131;BME280;29792;48.726;9.248;2022-07-25T05:42:09;96595.25;;;21.56;77.86
44131;BME280;29792;48.726;9.248;2022-07-25T05:44:34;96594.44;;;21.62;78.15
44131;BME280;29792;48.726;9.248;2022-07-25T05:46:59;96593.22;;;21.65;77.88
44131;BME280;29792;48.726;9.248;2022-07-25T05:49:25;96594.03;;;21.72;77.72
44131;BME280;29792;48.726;9.248;2022-07-25T05:51:50;96591.63;;;21.77;77.24
44131;BME280;29792;48.726;9.248;2022-07-25T05:54:15;96583.41;;;21.80;76.58
44131;BME280;29792;48.726;9.248;2022-07-25T05:56:41;96584.19;;;21.87;76.59
44131;BME280;29792;48.726;9.248;2022-07-25T05:59:06;96583.34;;;21.93;76.83
44131;BME280;29792;48.726;9.248;2022-07-25T06:01:31;96593.00;;;21.99;76.85
44131;BME280;29792;48.726;9.248;2022-07-25T06:03:57;96584.34;;;22.05;76.19
44131;BME280;29792;48.726;9.248;2022-07-25T06:06:22;96577.31;;;22.13;75.84
44131;BME280;29792;48.726;9.248;2022-07-25T06:08:47;96580.50;;;22.21;76.10
44131;BME280;29792;48.726;9.248;2022-07-25T06:11:12;96575.06;;;22.29;75.38
44131;BME280;29792;48.726;9.248;2022-07-25T06:13:38;96577.44;;;22.37;75.26
44131;BME280;29792;48.726;9.248;2022-07-25T06:16:03;96570.38;;;22.44;74.68
44131;BME280;29792;48.726;9.248;2022-07-25T06:18:29;96567.28;;;22.54;74.19
44131;BME280;29792;48.726;9.248;2022-07-25T06:20:54;96562.84;;;22.61;74.55
44131;BME280;29792;48.726;9.248;2022-07-25T06:23:19;96564.44;;;22.69;74.79
44131;BME280;29792;48.726;9.248;2022-07-25T06:25:45;96562.41;;;22.77;74.57
44131;BME280;29792;48.726;9.248;2022-07-25T06:28:14;96560.53;;;22.85;73.74
44131;BME280;29792;48.726;9.248;2022-07-25T06:30:41;96558.88;;;22.90;73.55
44131;BME280;29792;48.726;9.248;2022-07-25T06:33:06;96556.22;;;22.97;73.34
44131;BME280;29792;48.726;9.248;2022-07-25T06:35:31;96550.94;;;23.03;73.25
44131;BME280;29792;48.726;9.248;2022-07-25T06:37:56;96556.16;;;23.10;73.25
44131;BME280;29792;48.726;9.248;2022-07-25T06:40:22;96548.03;;;23.18;73.12
44131;BME280;29792;48.726;9.248;2022-07-25T06:42:47;96557.19;;;23.27;72.58
44131;BME280;29792;48.726;9.248;2022-07-25T06:45:13;96548.31;;;23.35;72.34
44131;BME280;29792;48.726;9.248;2022-07-25T06:47:42;96549.63;;;23.44;72.02
44131;BME280;29792;48.726;9.248;2022-07-25T06:50:10;96551.56;;;23.55;72.32
44131;BME280;29792;48.726;9.248;2022-07-25T06:52:36;96550.88;;;23.66;72.44
44131;BME280;29792;48.726;9.248;2022-07-25T06:55:03;96553.34;;;23.79;71.93
44131;BME280;29792;48.726;9.248;2022-07-25T06:57:28;96558.66;;;23.91;70.84
44131;BME280;29792;48.726;9.248;2022-07-25T06:59:53;96555.31;;;24.02;70.95
44131;BME280;29792;48.726;9.248;2022-07-25T07:02:19;96556.19;;;24.14;70.63
44131;BME280;29792;48.726;9.248;2022-07-25T07:04:44;96565.94;;;24.25;70.86
44131;BME280;29792;48.726;9.248;2022-07-25T07:07:10;96562.59;;;24.37;70.18
44131;BME280;29792;48.726;9.248;2022-07-25T07:09:35;96552.19;;;24.48;69.81
44131;BME280;29792;48.726;9.248;2022-07-25T07:12:00;96553.81;;;24.61;69.58
44131;BME280;29792;48.726;9.248;2022-07-25T07:14:26;96554.41;;;24.75;68.29
44131;BME280;29792;48.726;9.248;2022-07-25T07:16:51;96550.59;;;24.89;67.61
44131;BME280;29792;48.726;9.248;2022-07-25T07:19:17;96554.44;;;25.04;67.43
44131;BME280;29792;48.726;9.248;2022-07-25T07:21:42;96559.81;;;25.21;67.42
44131;BME280;29792;48.726;9.248;2022-07-25T07:24:08;96549.91;;;25.35;66.42
44131;BME280;29792;48.726;9.248;2022-07-25T07:26:33;96552.06;;;25.50;65.65
44131;BME280;29792;48.726;9.248;2022-07-25T07:28:59;96550.03;;;25.63;65.27
44131;BME280;29792;48.726;9.248;2022-07-25T07:31:24;96546.97;;;25.78;65.46
44131;BME280;29792;48.726;9.248;2022-07-25T07:33:50;96555.72;;;25.95;64.42
44131;BME280;29792;48.726;9.248;2022-07-25T07:36:16;96551.34;;;26.12;63.17
44131;BME280;29792;48.726;9.248;2022-07-25T07:38:41;96549.06;;;26.28;62.14
44131;BME280;29792;48.726;9.248;2022-07-25T07:41:08;96551.66;;;26.39;60.51
44131;BME280;29792;48.726;9.248;2022-07-25T07:43:34;96535.94;;;26.56;60.52
44131;BME280;29792;48.726;9.248;2022-07-25T07:45:59;96543.28;;;26.71;60.79
44131;BME280;29792;48.726;9.248;2022-07-25T07:48:29;96538.31;;;26.86;58.71
44131;BME280;29792;48.726;9.248;2022-07-25T07:50:54;96533.31;;;27.01;59.13
44131;BME280;29792;48.726;9.248;2022-07-25T07:53:20;96529.38;;;27.15;58.10
44131;BME280;29792;48.726;9.248;2022-07-25T07:55:45;96532.00;;;27.32;58.59
44131;BME280;29792;48.726;9.248;2022-07-25T07:58:17;96535.66;;;27.48;57.21
44131;BME280;29792;48.726;9.248;2022-07-25T08:00:47;96536.94;;;27.62;56.91
44131;BME280;29792;48.726;9.248;2022-07-25T08:03:17;96539.53;;;27.79;56.72
44131;BME280;29792;48.726;9.248;2022-07-25T08:05:44;96536.06;;;27.95;56.95
44131;BME280;29792;48.726;9.248;2022-07-25T08:08:12;96530.47;;;28.13;56.57
44131;BME280;29792;48.726;9.248;2022-07-25T08:10:44;96533.59;;;28.32;56.93
44131;BME280;29792;48.726;9.248;2022-07-25T08:13:27;96520.94;;;28.56;57.71
44131;BME280;29792;48.726;9.248;2022-07-25T08:15:55;96520.84;;;28.72;54.10
44131;BME280;29792;48.726;9.248;2022-07-25T08:18:25;96529.72;;;28.88;53.70
44131;BME280;29792;48.726;9.248;2022-07-25T08:20:51;96535.44;;;29.07;54.23
44131;BME280;29792;48.726;9.248;2022-07-25T08:23:17;96536.34;;;29.22;53.14
44131;BME280;29792;48.726;9.248;2022-07-25T08:25:44;96540.22;;;29.42;52.56
44131;BME280;29792;48.726;9.248;2022-07-25T08:28:09;96535.03;;;29.57;53.20
44131;BME280;29792;48.726;9.248;2022-07-25T08:30:36;96542.25;;;29.77;52.46
44131;BME280;29792;48.726;9.248;2022-07-25T08:33:04;96527.56;;;29.91;51.79
44131;BME280;29792;48.726;9.248;2022-07-25T08:35:32;96534.81;;;30.11;52.75
44131;BME280;29792;48.726;9.248;2022-07-25T08:37:58;96537.25;;;30.27;51.87
44131;BME280;29792;48.726;9.248;2022-07-25T08:40:26;96539.38;;;30.41;50.46
44131;BME280;29792;48.726;9.248;2022-07-25T08:42:52;96532.59;;;30.60;50.71
44131;BME280;29792;48.726;9.248;2022-07-25T08:45:19;96527.09;;;30.92;50.18
44131;BME280;29792;48.726;9.248;2022-07-25T08:47:46;96531.88;;;31.40;47.42
44131;BME280;29792;48.726;9.248;2022-07-25T08:50:14;96536.84;;;31.88;46.97
44131;BME280;29792;48.726;9.248;2022-07-25T08:52:42;96537.03;;;32.16;45.76
44131;BME280;29792;48.726;9.248;2022-07-25T08:55:09;96532.22;;;32.24;44.64
44131;BME280;29792;48.726;9.248;2022-07-25T08:57:37;96536.22;;;32.26;45.09
44131;BME280;29792;48.726;9.248;2022-07-25T09:00:06;96531.16;;;32.25;45.96
44131;BME280;29792;48.726;9.248;2022-07-25T09:02:31;96531.16;;;32.25;44.44
44131;BME280;29792;48.726;9.248;2022-07-25T09:04:57;96523.47;;;32.23;44.26
44131;BME280;29792;48.726;9.248;2022-07-25T09:07:34;96522.41;;;32.24;43.49
44131;BME280;29792;48.726;9.248;2022-07-25T09:10:19;96526.09;;;32.33;44.18
44131;BME280;29792;48.726;9.248;2022-07-25T09:12:54;96515.41;;;32.43;43.62
44131;BME280;29792;48.726;9.248;2022-07-25T09:17:52;96515.03;;;32.65;42.60
44131;BME280;29792;48.726;9.248;2022-07-25T09:20:18;96510.75;;;32.74;42.42
44131;BME280;29792;48.726;9.248;2022-07-25T09:22:44;96506.44;;;32.83;41.48
44131;BME280;29792;48.726;9.248;2022-07-25T09:25:20;96508.50;;;32.91;39.96
44131;BME280;29792;48.726;9.248;2022-07-25T09:27:45;96510.31;;;32.96;41.41
44131;BME280;29792;48.726;9.248;2022-07-25T09:30:13;96507.84;;;33.05;42.11
44131;BME280;29792;48.726;9.248;2022-07-25T09:32:38;96508.00;;;33.18;40.88
44131;BME280;29792;48.726;9.248;2022-07-25T09:35:04;96509.56;;;33.24;40.91
44131;BME280;29792;48.726;9.248;2022-07-25T09:37:29;96506.59;;;33.31;41.63
44131;BME280;29792;48.726;9.248;2022-07-25T09:39:55;96511.25;;;33.44;42.47
44131;BME280;29792;48.726;9.248;2022-07-25T09:42:23;96518.84;;;33.56;41.58
44131;BME280;29792;48.726;9.248;2022-07-25T09:47:32;96514.25;;;33.61;38.18
44131;BME280;29792;48.726;9.248;2022-07-25T09:49:58;96510.19;;;33.69;42.09
44131;BME280;29792;48.726;9.248;2022-07-25T09:52:24;96510.59;;;33.81;42.39
44131;BME280;29792;48.726;9.248;2022-07-25T09:54:49;96507.84;;;33.91;40.44
44131;BME280;29792;48.726;9.248;2022-07-25T09:57:15;96506.94;;;34.01;38.33
44131;BME280;29792;48.726;9.248;2022-07-25T09:59:40;96499.91;;;34.10;38.74
44131;BME280;29792;48.726;9.248;2022-07-25T10:02:09;96509.34;;;34.21;39.22
44131;BME280;29792;48.726;9.248;2022-07-25T10:04:45;96506.38;;;34.28;38.17
44131;BME280;29792;48.726;9.248;2022-07-25T10:07:12;96496.16;;;34.35;39.05
44131;BME280;29792;48.726;9.248;2022-07-25T10:09:47;96494.72;;;34.42;39.24
44131;BME280;29792;48.726;9.248;2022-07-25T10:12:18;96492.78;;;34.48;39.53
44131;BME280;29792;48.726;9.248;2022-07-25T10:15:06;96491.91;;;34.53;38.62
44131;BME280;29792;48.726;9.248;2022-07-25T10:17:34;96486.75;;;34.61;38.75
44131;BME280;29792;48.726;9.248;2022-07-25T10:20:00;96480.97;;;34.73;39.06
44131;BME280;29792;48.726;9.248;2022-07-25T10:22:42;96476.38;;;34.78;36.39
44131;BME280;29792;48.726;9.248;2022-07-25T10:25:16;96476.59;;;34.82;38.20
44131;BME280;29792;48.726;9.248;2022-07-25T10:27:47;96466.94;;;34.86;36.90
44131;BME280;29792;48.726;9.248;2022-07-25T10:30:24;96469.53;;;34.91;37.33
44131;BME280;29792;48.726;9.248;2022-07-25T10:35:20;96475.47;;;35.02;36.99
44131;BME280;29792;48.726;9.248;2022-07-25T10:37:49;96465.41;;;34.99;35.90
44131;BME280;29792;48.726;9.248;2022-07-25T10:40:36;96460.88;;;34.99;36.72
44131;BME280;29792;48.726;9.248;2022-07-25T10:43:05;96463.25;;;35.01;38.04
44131;BME280;29792;48.726;9.248;2022-07-25T10:45:57;96460.28;;;35.02;36.25
44131;BME280;29792;48.726;9.248;2022-07-25T10:48:28;96452.78;;;35.04;37.62
44131;BME280;29792;48.726;9.248;2022-07-25T10:51:03;96444.31;;;35.02;36.09
44131;BME280;29792;48.726;9.248;2022-07-25T10:53:38;96446.84;;;34.94;35.91
44131;BME280;29792;48.726;9.248;2022-07-25T10:56:16;96444.38;;;34.97;39.91
44131;BME280;29792;48.726;9.248;2022-07-25T10:58:52;96438.66;;;35.04;39.28
44131;BME280;29792;48.726;9.248;2022-07-25T11:01:26;96437.19;;;35.11;37.67
44131;BME280;29792;48.726;9.248;2022-07-25T11:03:54;96438.38;;;35.19;38.05
44131;BME280;29792;48.726;9.248;2022-07-25T11:06:39;96430.66;;;35.23;36.73
44131;BME280;29792;48.726;9.248;2022-07-25T11:09:20;96429.22;;;35.11;34.78
44131;BME280;29792;48.726;9.248;2022-07-25T11:11:48;96435.72;;;35.05;35.15
44131;BME280;29792;48.726;9.248;2022-07-25T11:16:40;96426.81;;;34.96;34.35
44131;BME280;29792;48.726;9.248;2022-07-25T11:19:16;96422.50;;;35.00;37.09
44131;BME280;29792;48.726;9.248;2022-07-25T11:21:53;96419.94;;;35.09;35.63
44131;BME280;29792;48.726;9.248;2022-07-25T11:24:20;96412.53;;;35.19;36.28
44131;BME280;29792;48.726;9.248;2022-07-25T11:26:51;96412.38;;;35.30;34.88
44131;BME280;29792;48.726;9.248;2022-07-25T11:29:24;96405.88;;;35.36;35.81
44131;BME280;29792;48.726;9.248;2022-07-25T11:31:54;96397.69;;;35.46;36.58
44131;BME280;29792;48.726;9.248;2022-07-25T11:34:23;96399.88;;;35.57;33.44
44131;BME280;29792;48.726;9.248;2022-07-25T11:36:50;96397.59;;;35.65;33.09
44131;BME280;29792;48.726;9.248;2022-07-25T11:39:16;96407.03;;;35.71;30.71
44131;BME280;29792;48.726;9.248;2022-07-25T11:41:42;96397.09;;;35.76;31.87
44131;BME280;29792;48.726;9.248;2022-07-25T11:44:07;96399.25;;;35.88;33.52
44131;BME280;29792;48.726;9.248;2022-07-25T11:46:42;96401.13;;;35.87;33.56
44131;BME280;29792;48.726;9.248;2022-07-25T11:49:08;96402.50;;;35.85;32.09
44131;BME280;29792;48.726;9.248;2022-07-25T11:51:37;96393.41;;;35.86;31.60
44131;BME280;29792;48.726;9.248;2022-07-25T11:54:07;96393.81;;;35.93;31.04
44131;BME280;29792;48.726;9.248;2022-07-25T11:56:37;96387.88;;;35.96;30.03
44131;BME280;29792;48.726;9.248;2022-07-25T11:59:02;96386.97;;;36.01;29.03
44131;BME280;29792;48.726;9.248;2022-07-25T12:01:36;96388.75;;;36.05;29.41
44131;BME280;29792;48.726;9.248;2022-07-25T12:04:08;96390.63;;;36.05;29.34
44131;BME280;29792;48.726;9.248;2022-07-25T12:06:34;96371.94;;;36.05;30.75
44131;BME280;29792;48.726;9.248;2022-07-25T12:09:09;96380.53;;;36.02;29.63
44131;BME280;29792;48.726;9.248;2022-07-25T12:11:35;96382.63;;;36.05;31.59
44131;BME280;29792;48.726;9.248;2022-07-25T12:14:02;96380.75;;;36.05;30.15
44131;BME280;29792;48.726;9.248;2022-07-25T12:16:28;96364.00;;;35.91;28.71
44131;BME280;29792;48.726;9.248;2022-07-25T12:18:54;96378.25;;;35.73;29.99
44131;BME280;29792;48.726;9.248;2022-07-25T12:21:19;96378.25;;;35.59;30.52
44131;BME280;29792;48.726;9.248;2022-07-25T12:23:44;96369.16;;;35.46;30.55
44131;BME280;29792;48.726;9.248;2022-07-25T12:26:10;96364.81;;;35.37;31.35
44131;BME280;29792;48.726;9.248;2022-07-25T12:28:37;96370.06;;;35.28;31.66
44131;BME280;29792;48.726;9.248;2022-07-25T12:31:03;96365.38;;;35.20;31.06
44131;BME280;29792;48.726;9.248;2022-07-25T12:33:28;96365.78;;;35.13;32.33
44131;BME280;29792;48.726;9.248;2022-07-25T12:35:54;96368.72;;;35.12;32.15
44131;BME280;29792;48.726;9.248;2022-07-25T12:38:19;96364.31;;;35.21;32.75
44131;BME280;29792;48.726;9.248;2022-07-25T12:40:45;96364.34;;;35.35;32.06
44131;BME280;29792;48.726;9.248;2022-07-25T12:43:10;96363.16;;;35.41;31.45
44131;BME280;29792;48.726;9.248;2022-07-25T12:45:35;96362.53;;;35.44;32.09
44131;BME280;29792;48.726;9.248;2022-07-25T12:48:01;96362.44;;;35.35;32.34
44131;BME280;29792;48.726;9.248;2022-07-25T12:50:26;96360.28;;;35.24;33.08
44131;BME280;29792;48.726;9.248;2022-07-25T12:52:52;96361.75;;;35.16;31.76
44131;BME280;29792;48.726;9.248;2022-07-25T12:55:18;96365.38;;;35.06;31.23
44131;BME280;29792;48.726;9.248;2022-07-25T12:57:44;96365.56;;;34.96;32.61
44131;BME280;29792;48.726;9.248;2022-07-25T13:00:15;96365.56;;;34.82;31.66
44131;BME280;29792;48.726;9.248;2022-07-25T13:02:41;96373.13;;;34.75;32.47
44131;BME280;29792;48.726;9.248;2022-07-25T13:05:07;96381.25;;;34.65;33.19
44131;BME280;29792;48.726;9.248;2022-07-25T13:07:32;96369.19;;;34.54;32.49
44131;BME280;29792;48.726;9.248;2022-07-25T13:09:58;96370.66;;;34.46;33.65